Panorama Heights, New Mexico
Current Conditions -  °F | °C
As of 3:55 AM on Thursday 23 Oct 2014 (Local Time) from KAEG Reporting Station
Clear Clear  
Wind Chill: 42°   Ceiling: Unl
Heat Index: 44°   Visibility: 10mi
Dew Point: 40°   Wind: 5mph
Humidity: 86%   Direction: 350°N
Pressure: 30.24"   Gusts: NA
Location:  35.2385°N, 106.668°W
Report Text: KAEG 230955Z AUTO 35004KT 10SM CLR 07/05 A3024 RMK AO2 T00670045
Loading
Personal Weather Stations






























Interactive Weather Map
Tropical Storm Tracking
New forecast layout! Learn more

10-Day Weather Forecast

Advertisements
Track Severe Weather on mobile